sensor_id;sensor_type;location;lat;lon;timestamp;temperature;humidity
51486;DHT22;37565;51.352;6.412;2022-08-21T00:00:40;24.00;99.90
51486;DHT22;37565;51.352;6.412;2022-08-21T00:03:11;24.00;99.90
51486;DHT22;37565;51.352;6.412;2022-08-21T00:05:42;24.00;99.90
51486;DHT22;37565;51.352;6.412;2022-08-21T00:08:12;23.90;99.90
51486;DHT22;37565;51.352;6.412;2022-08-21T00:10:41;23.90;99.90
51486;DHT22;37565;51.352;6.412;2022-08-21T00:13:10;23.90;99.90
51486;DHT22;37565;51.352;6.412;2022-08-21T00:15:44;23.90;99.90
51486;DHT22;37565;51.352;6.412;2022-08-21T00:18:14;23.90;99.90
51486;DHT22;37565;51.352;6.412;2022-08-21T00:20:43;23.90;99.90
51486;DHT22;37565;51.352;6.412;2022-08-21T00:23:14;23.90;99.90
51486;DHT22;37565;51.352;6.412;2022-08-21T00:25:43;23.90;99.90
51486;DHT22;37565;51.352;6.412;2022-08-21T00:28:12;23.90;99.90
51486;DHT22;37565;51.352;6.412;2022-08-21T00:30:41;23.90;99.90
51486;DHT22;37565;51.352;6.412;2022-08-21T00:33:10;23.90;99.90
51486;DHT22;37565;51.352;6.412;2022-08-21T00:35:41;23.90;99.90
51486;DHT22;37565;51.352;6.412;2022-08-21T00:38:10;23.90;99.90
51486;DHT22;37565;51.352;6.412;2022-08-21T00:40:43;23.80;99.90
51486;DHT22;37565;51.352;6.412;2022-08-21T00:43:14;23.90;99.90
51486;DHT22;37565;51.352;6.412;2022-08-21T00:45:43;23.80;99.90
51486;DHT22;37565;51.352;6.412;2022-08-21T00:48:11;23.80;99.90
51486;DHT22;37565;51.352;6.412;2022-08-21T00:50:43;23.80;99.90
51486;DHT22;37565;51.352;6.412;2022-08-21T00:53:12;23.80;99.90
51486;DHT22;37565;51.352;6.412;2022-08-21T00:55:42;23.80;99.90
51486;DHT22;37565;51.352;6.412;2022-08-21T00:58:12;23.80;99.90
51486;DHT22;37565;51.352;6.412;2022-08-21T01:00:46;23.80;99.90
51486;DHT22;37565;51.352;6.412;2022-08-21T01:03:17;23.80;99.90
51486;DHT22;37565;51.352;6.412;2022-08-21T01:05:49;23.80;99.90
51486;DHT22;37565;51.352;6.412;2022-08-21T01:08:19;23.80;99.90
51486;DHT22;37565;51.352;6.412;2022-08-21T01:10:49;23.80;99.90
51486;DHT22;37565;51.352;6.412;2022-08-21T01:13:21;23.80;99.90
51486;DHT22;37565;51.352;6.412;2022-08-21T01:15:54;23.80;99.90
51486;DHT22;37565;51.352;6.412;2022-08-21T01:18:22;23.80;99.90
51486;DHT22;37565;51.352;6.412;2022-08-21T01:21:01;23.80;99.90
51486;DHT22;37565;51.352;6.412;2022-08-21T01:23:30;23.80;99.90
51486;DHT22;37565;51.352;6.412;2022-08-21T01:25:58;23.80;99.90
51486;DHT22;37565;51.352;6.412;2022-08-21T01:28:26;23.80;99.90
51486;DHT22;37565;51.352;6.412;2022-08-21T01:30:57;23.80;99.90
51486;DHT22;37565;51.352;6.412;2022-08-21T01:33:26;23.80;99.90
51486;DHT22;37565;51.352;6.412;2022-08-21T01:35:54;23.80;99.90
51486;DHT22;37565;51.352;6.412;2022-08-21T01:38:25;23.80;99.90
51486;DHT22;37565;51.352;6.412;2022-08-21T01:40:54;23.80;99.90
51486;DHT22;37565;51.352;6.412;2022-08-21T01:43:23;23.80;99.90
51486;DHT22;37565;51.352;6.412;2022-08-21T01:46:05;23.80;99.90
51486;DHT22;37565;51.352;6.412;2022-08-21T01:48:33;23.80;99.90
51486;DHT22;37565;51.352;6.412;2022-08-21T01:51:01;23.80;99.90
51486;DHT22;37565;51.352;6.412;2022-08-21T01:53:31;23.70;99.90
51486;DHT22;37565;51.352;6.412;2022-08-21T01:56:00;23.80;99.90
51486;DHT22;37565;51.352;6.412;2022-08-21T01:58:28;23.80;99.90
51486;DHT22;37565;51.352;6.412;2022-08-21T02:00:56;23.80;99.90
51486;DHT22;37565;51.352;6.412;2022-08-21T02:03:24;23.70;99.90
51486;DHT22;37565;51.352;6.412;2022-08-21T02:06:02;23.70;99.90
51486;DHT22;37565;51.352;6.412;2022-08-21T02:08:32;23.70;99.90
51486;DHT22;37565;51.352;6.412;2022-08-21T02:11:00;23.70;99.90
51486;DHT22;37565;51.352;6.412;2022-08-21T02:13:28;23.70;99.90
51486;DHT22;37565;51.352;6.412;2022-08-21T02:15:56;23.70;99.90
51486;DHT22;37565;51.352;6.412;2022-08-21T02:18:24;23.70;99.90
51486;DHT22;37565;51.352;6.412;2022-08-21T02:20:52;23.70;99.90
51486;DHT22;37565;51.352;6.412;2022-08-21T02:23:22;23.70;99.90
51486;DHT22;37565;51.352;6.412;2022-08-21T02:25:55;23.70;99.90
51486;DHT22;37565;51.352;6.412;2022-08-21T02:28:24;23.70;99.90
51486;DHT22;37565;51.352;6.412;2022-08-21T02:30:54;23.70;99.90
51486;DHT22;37565;51.352;6.412;2022-08-21T02:33:23;23.60;99.90
51486;DHT22;37565;51.352;6.412;2022-08-21T02:35:52;23.70;99.90
51486;DHT22;37565;51.352;6.412;2022-08-21T02:38:23;23.70;99.90
51486;DHT22;37565;51.352;6.412;2022-08-21T02:40:52;23.70;99.90
51486;DHT22;37565;51.352;6.412;2022-08-21T02:43:23;23.70;99.90
51486;DHT22;37565;51.352;6.412;2022-08-21T02:45:53;23.70;99.90
51486;DHT22;37565;51.352;6.412;2022-08-21T02:48:25;23.70;99.90
51486;DHT22;37565;51.352;6.412;2022-08-21T02:50:55;23.60;99.90
51486;DHT22;37565;51.352;6.412;2022-08-21T02:53:24;23.60;99.90
51486;DHT22;37565;51.352;6.412;2022-08-21T02:55:53;23.60;99.90
51486;DHT22;37565;51.352;6.412;2022-08-21T02:58:25;23.60;99.90
51486;DHT22;37565;51.352;6.412;2022-08-21T03:00:54;23.60;99.90
51486;DHT22;37565;51.352;6.412;2022-08-21T03:03:22;23.60;99.90
51486;DHT22;37565;51.352;6.412;2022-08-21T03:05:50;23.60;99.90
51486;DHT22;37565;51.352;6.412;2022-08-21T03:08:20;23.60;99.90
51486;DHT22;37565;51.352;6.412;2022-08-21T03:10:51;23.60;99.90
51486;DHT22;37565;51.352;6.412;2022-08-21T03:13:20;23.60;99.90
51486;DHT22;37565;51.352;6.412;2022-08-21T03:15:49;23.60;99.90
51486;DHT22;37565;51.352;6.412;2022-08-21T03:18:18;23.60;99.90
51486;DHT22;37565;51.352;6.412;2022-08-21T03:20:46;23.60;99.90
51486;DHT22;37565;51.352;6.412;2022-08-21T03:23:16;23.60;99.90
51486;DHT22;37565;51.352;6.412;2022-08-21T03:25:46;23.60;99.90
51486;DHT22;37565;51.352;6.412;2022-08-21T03:28:16;23.60;99.90
51486;DHT22;37565;51.352;6.412;2022-08-21T03:30:47;23.60;99.90
51486;DHT22;37565;51.352;6.412;2022-08-21T03:33:17;23.60;99.90
51486;DHT22;37565;51.352;6.412;2022-08-21T03:35:54;23.60;99.90
51486;DHT22;37565;51.352;6.412;2022-08-21T03:38:23;23.60;99.90
51486;DHT22;37565;51.352;6.412;2022-08-21T03:40:52;23.60;99.90
51486;DHT22;37565;51.352;6.412;2022-08-21T03:43:21;23.60;99.90
51486;DHT22;37565;51.352;6.412;2022-08-21T03:45:49;23.60;99.90
51486;DHT22;37565;51.352;6.412;2022-08-21T03:48:19;23.60;99.90
51486;DHT22;37565;51.352;6.412;2022-08-21T03:50:48;23.60;99.90
51486;DHT22;37565;51.352;6.412;2022-08-21T03:53:16;23.60;99.90
51486;DHT22;37565;51.352;6.412;2022-08-21T03:55:45;23.60;99.90
51486;DHT22;37565;51.352;6.412;2022-08-21T03:58:14;23.60;99.90
51486;DHT22;37565;51.352;6.412;2022-08-21T04:00:44;23.60;99.90
51486;DHT22;37565;51.352;6.412;2022-08-21T04:03:12;23.50;99.90
51486;DHT22;37565;51.352;6.412;2022-08-21T04:05:41;23.60;99.90
51486;DHT22;37565;51.352;6.412;2022-08-21T04:08:09;23.60;99.90
51486;DHT22;37565;51.352;6.412;2022-08-21T04:10:39;23.50;99.90
51486;DHT22;37565;51.352;6.412;2022-08-21T04:13:07;23.60;99.90
51486;DHT22;37565;51.352;6.412;2022-08-21T04:15:35;23.50;99.90
51486;DHT22;37565;51.352;6.412;2022-08-21T04:18:04;23.50;99.90
51486;DHT22;37565;51.352;6.412;2022-08-21T04:20:33;23.50;99.90
51486;DHT22;37565;51.352;6.412;2022-08-21T04:23:03;23.60;99.90
51486;DHT22;37565;51.352;6.412;2022-08-21T04:25:31;23.50;99.90
51486;DHT22;37565;51.352;6.412;2022-08-21T04:27:59;23.50;99.90
51486;DHT22;37565;51.352;6.412;2022-08-21T04:30:28;23.50;99.90
51486;DHT22;37565;51.352;6.412;2022-08-21T04:32:57;23.50;99.90
51486;DHT22;37565;51.352;6.412;2022-08-21T04:35:27;23.50;99.90
51486;DHT22;37565;51.352;6.412;2022-08-21T04:37:56;23.50;99.90
51486;DHT22;37565;51.352;6.412;2022-08-21T04:40:27;23.50;99.90
51486;DHT22;37565;51.352;6.412;2022-08-21T04:42:58;23.50;99.90
51486;DHT22;37565;51.352;6.412;2022-08-21T04:45:30;23.50;99.90
51486;DHT22;37565;51.352;6.412;2022-08-21T04:48:00;23.50;99.90
51486;DHT22;37565;51.352;6.412;2022-08-21T04:50:31;23.40;99.90
51486;DHT22;37565;51.352;6.412;2022-08-21T04:53:00;23.40;99.90
51486;DHT22;37565;51.352;6.412;2022-08-21T04:55:29;23.50;99.90
51486;DHT22;37565;51.352;6.412;2022-08-21T04:57:58;23.40;99.90
51486;DHT22;37565;51.352;6.412;2022-08-21T05:00:26;23.40;99.90
51486;DHT22;37565;51.352;6.412;2022-08-21T05:02:55;23.40;99.90
51486;DHT22;37565;51.352;6.412;2022-08-21T05:05:28;23.40;99.90
51486;DHT22;37565;51.352;6.412;2022-08-21T05:07:56;23.40;99.90
51486;DHT22;37565;51.352;6.412;2022-08-21T05:10:25;23.40;99.90
51486;DHT22;37565;51.352;6.412;2022-08-21T05:12:55;23.40;99.90
51486;DHT22;37565;51.352;6.412;2022-08-21T05:15:24;23.40;99.90
51486;DHT22;37565;51.352;6.412;2022-08-21T05:17:52;23.40;99.90
51486;DHT22;37565;51.352;6.412;2022-08-21T05:20:27;23.40;99.90
51486;DHT22;37565;51.352;6.412;2022-08-21T05:22:55;23.40;99.90
51486;DHT22;37565;51.352;6.412;2022-08-21T05:25:24;23.40;99.90
51486;DHT22;37565;51.352;6.412;2022-08-21T05:27:55;23.40;99.90
51486;DHT22;37565;51.352;6.412;2022-08-21T05:30:26;23.40;99.90
51486;DHT22;37565;51.352;6.412;2022-08-21T05:32:56;23.40;99.90
51486;DHT22;37565;51.352;6.412;2022-08-21T05:35:26;23.40;99.90
51486;DHT22;37565;51.352;6.412;2022-08-21T05:37:55;23.40;99.90
51486;DHT22;37565;51.352;6.412;2022-08-21T05:40:24;23.40;99.90
51486;DHT22;37565;51.352;6.412;2022-08-21T05:42:54;23.40;99.90
51486;DHT22;37565;51.352;6.412;2022-08-21T05:45:26;23.40;99.90
51486;DHT22;37565;51.352;6.412;2022-08-21T05:48:11;23.40;99.90
51486;DHT22;37565;51.352;6.412;2022-08-21T05:50:40;23.40;99.90
51486;DHT22;37565;51.352;6.412;2022-08-21T05:53:09;23.40;99.90
51486;DHT22;37565;51.352;6.412;2022-08-21T05:55:38;23.40;99.90
51486;DHT22;37565;51.352;6.412;2022-08-21T05:58:13;23.40;99.90
51486;DHT22;37565;51.352;6.412;2022-08-21T06:00:42;23.40;99.90
51486;DHT22;37565;51.352;6.412;2022-08-21T06:03:11;23.40;99.90
51486;DHT22;37565;51.352;6.412;2022-08-21T06:05:40;23.40;99.90
51486;DHT22;37565;51.352;6.412;2022-08-21T06:08:08;23.40;99.90
51486;DHT22;37565;51.352;6.412;2022-08-21T06:10:36;23.30;99.90
51486;DHT22;37565;51.352;6.412;2022-08-21T06:13:04;23.20;99.90
51486;DHT22;37565;51.352;6.412;2022-08-21T06:15:33;23.10;99.90
51486;DHT22;37565;51.352;6.412;2022-08-21T06:18:02;23.10;99.90
51486;DHT22;37565;51.352;6.412;2022-08-21T06:20:30;23.00;99.90
51486;DHT22;37565;51.352;6.412;2022-08-21T06:22:58;23.00;99.90
51486;DHT22;37565;51.352;6.412;2022-08-21T06:25:27;23.00;99.90
51486;DHT22;37565;51.352;6.412;2022-08-21T06:28:01;22.90;99.90
51486;DHT22;37565;51.352;6.412;2022-08-21T06:30:29;22.90;99.90
51486;DHT22;37565;51.352;6.412;2022-08-21T06:32:58;22.90;99.90
51486;DHT22;37565;51.352;6.412;2022-08-21T06:35:27;22.90;99.90
51486;DHT22;37565;51.352;6.412;2022-08-21T06:37:56;22.80;99.90
51486;DHT22;37565;51.352;6.412;2022-08-21T06:40:24;22.80;99.90
51486;DHT22;37565;51.352;6.412;2022-08-21T06:42:52;22.80;99.90
51486;DHT22;37565;51.352;6.412;2022-08-21T06:45:21;22.80;99.90
51486;DHT22;37565;51.352;6.412;2022-08-21T06:47:49;22.80;99.90
51486;DHT22;37565;51.352;6.412;2022-08-21T06:50:19;22.80;99.90
51486;DHT22;37565;51.352;6.412;2022-08-21T06:52:47;22.90;99.90
51486;DHT22;37565;51.352;6.412;2022-08-21T06:55:15;22.90;99.70
51486;DHT22;37565;51.352;6.412;2022-08-21T06:57:48;22.80;99.60
51486;DHT22;37565;51.352;6.412;2022-08-21T07:00:18;22.80;99.80
51486;DHT22;37565;51.352;6.412;2022-08-21T07:02:46;22.80;99.90
51486;DHT22;37565;51.352;6.412;2022-08-21T07:05:14;22.80;99.80
51486;DHT22;37565;51.352;6.412;2022-08-21T07:07:45;22.80;99.90
51486;DHT22;37565;51.352;6.412;2022-08-21T07:10:15;22.80;99.80
51486;DHT22;37565;51.352;6.412;2022-08-21T07:12:48;22.80;99.90
51486;DHT22;37565;51.352;6.412;2022-08-21T07:15:27;22.80;99.90
51486;DHT22;37565;51.352;6.412;2022-08-21T07:17:56;22.80;99.90
51486;DHT22;37565;51.352;6.412;2022-08-21T07:20:25;22.80;99.90
51486;DHT22;37565;51.352;6.412;2022-08-21T07:22:54;22.80;99.90
51486;DHT22;37565;51.352;6.412;2022-08-21T07:25:23;22.70;99.90
51486;DHT22;37565;51.352;6.412;2022-08-21T07:27:52;22.80;99.90
51486;DHT22;37565;51.352;6.412;2022-08-21T07:30:20;22.80;99.90
51486;DHT22;37565;51.352;6.412;2022-08-21T07:32:48;22.80;99.90
51486;DHT22;37565;51.352;6.412;2022-08-21T07:35:17;22.70;99.90
51486;DHT22;37565;51.352;6.412;2022-08-21T07:37:46;22.70;99.90
51486;DHT22;37565;51.352;6.412;2022-08-21T07:40:16;22.80;99.90
51486;DHT22;37565;51.352;6.412;2022-08-21T07:42:46;22.90;99.90
51486;DHT22;37565;51.352;6.412;2022-08-21T07:45:17;22.90;99.90
51486;DHT22;37565;51.352;6.412;2022-08-21T07:47:46;23.00;99.80
51486;DHT22;37565;51.352;6.412;2022-08-21T07:50:14;23.00;99.50
51486;DHT22;37565;51.352;6.412;2022-08-21T07:52:43;23.10;99.20
51486;DHT22;37565;51.352;6.412;2022-08-21T07:55:13;23.00;99.20
51486;DHT22;37565;51.352;6.412;2022-08-21T07:57:43;23.00;99.00
51486;DHT22;37565;51.352;6.412;2022-08-21T08:00:14;23.00;98.80
51486;DHT22;37565;51.352;6.412;2022-08-21T08:02:45;23.00;99.00
51486;DHT22;37565;51.352;6.412;2022-08-21T08:05:17;23.00;98.90
51486;DHT22;37565;51.352;6.412;2022-08-21T08:07:46;23.10;99.00
51486;DHT22;37565;51.352;6.412;2022-08-21T08:10:14;23.00;98.80
51486;DHT22;37565;51.352;6.412;2022-08-21T08:12:44;23.00;98.70
51486;DHT22;37565;51.352;6.412;2022-08-21T08:15:15;23.00;98.60
51486;DHT22;37565;51.352;6.412;2022-08-21T08:17:43;23.10;98.50
51486;DHT22;37565;51.352;6.412;2022-08-21T08:20:12;23.00;98.40
51486;DHT22;37565;51.352;6.412;2022-08-21T08:22:41;23.10;98.40
51486;DHT22;37565;51.352;6.412;2022-08-21T08:25:16;23.00;98.30
51486;DHT22;37565;51.352;6.412;2022-08-21T08:27:45;23.10;98.20
51486;DHT22;37565;51.352;6.412;2022-08-21T08:30:15;23.10;98.10
51486;DHT22;37565;51.352;6.412;2022-08-21T08:32:45;23.10;97.90
51486;DHT22;37565;51.352;6.412;2022-08-21T08:35:14;23.10;98.10
51486;DHT22;37565;51.352;6.412;2022-08-21T08:37:43;23.10;98.60
51486;DHT22;37565;51.352;6.412;2022-08-21T08:40:22;23.10;98.30
51486;DHT22;37565;51.352;6.412;2022-08-21T08:42:54;23.10;98.30
51486;DHT22;37565;51.352;6.412;2022-08-21T08:45:23;23.10;98.40
51486;DHT22;37565;51.352;6.412;2022-08-21T08:47:55;23.10;98.40
51486;DHT22;37565;51.352;6.412;2022-08-21T08:50:30;23.20;98.80
51486;DHT22;37565;51.352;6.412;2022-08-21T08:53:05;23.10;98.80
51486;DHT22;37565;51.352;6.412;2022-08-21T08:55:36;23.20;99.10
51486;DHT22;37565;51.352;6.412;2022-08-21T08:58:08;23.20;99.20
51486;DHT22;37565;51.352;6.412;2022-08-21T09:00:38;23.20;99.40
51486;DHT22;37565;51.352;6.412;2022-08-21T09:03:06;23.20;99.60
51486;DHT22;37565;51.352;6.412;2022-08-21T09:05:41;23.30;99.90
51486;DHT22;37565;51.352;6.412;2022-08-21T09:08:26;23.30;99.90
51486;DHT22;37565;51.352;6.412;2022-08-21T09:11:02;23.30;99.90
51486;DHT22;37565;51.352;6.412;2022-08-21T09:13:43;23.30;99.80
51486;DHT22;37565;51.352;6.412;2022-08-21T09:16:19;23.30;99.90
51486;DHT22;37565;51.352;6.412;2022-08-21T09:18:56;23.40;99.80
51486;DHT22;37565;51.352;6.412;2022-08-21T09:21:35;23.40;99.90
51486;DHT22;37565;51.352;6.412;2022-08-21T09:24:19;23.40;99.70
51486;DHT22;37565;51.352;6.412;2022-08-21T09:26:57;23.40;99.50
51486;DHT22;37565;51.352;6.412;2022-08-21T09:29:33;23.40;99.10
51486;DHT22;37565;51.352;6.412;2022-08-21T09:32:04;23.40;99.00
51486;DHT22;37565;51.352;6.412;2022-08-21T09:34:42;23.40;99.00
51486;DHT22;37565;51.352;6.412;2022-08-21T09:37:17;23.40;98.60
51486;DHT22;37565;51.352;6.412;2022-08-21T09:39:45;23.40;98.70
51486;DHT22;37565;51.352;6.412;2022-08-21T09:42:22;23.40;98.50
51486;DHT22;37565;51.352;6.412;2022-08-21T09:45:09;23.40;98.70
51486;DHT22;37565;51.352;6.412;2022-08-21T09:47:38;23.50;98.00
51486;DHT22;37565;51.352;6.412;2022-08-21T09:50:11;23.50;98.40
51486;DHT22;37565;51.352;6.412;2022-08-21T09:52:47;23.50;98.30
51486;DHT22;37565;51.352;6.412;2022-08-21T09:55:31;23.50;97.90
51486;DHT22;37565;51.352;6.412;2022-08-21T09:58:18;23.50;97.90
51486;DHT22;37565;51.352;6.412;2022-08-21T10:00:58;23.50;98.20
51486;DHT22;37565;51.352;6.412;2022-08-21T10:03:27;23.50;98.00
51486;DHT22;37565;51.352;6.412;2022-08-21T10:05:59;23.50;97.70
51486;DHT22;37565;51.352;6.412;2022-08-21T10:08:29;23.50;97.60
51486;DHT22;37565;51.352;6.412;2022-08-21T10:11:08;23.50;98.10
51486;DHT22;37565;51.352;6.412;2022-08-21T10:13:46;23.50;98.00
51486;DHT22;37565;51.352;6.412;2022-08-21T10:16:26;23.60;97.60
51486;DHT22;37565;51.352;6.412;2022-08-21T10:19:04;23.60;97.30
51486;DHT22;37565;51.352;6.412;2022-08-21T10:21:40;23.60;97.10
51486;DHT22;37565;51.352;6.412;2022-08-21T10:24:14;23.60;97.10
51486;DHT22;37565;51.352;6.412;2022-08-21T10:27:06;23.70;97.20
51486;DHT22;37565;51.352;6.412;2022-08-21T10:29:45;23.70;96.90
51486;DHT22;37565;51.352;6.412;2022-08-21T10:32:28;23.70;97.10
51486;DHT22;37565;51.352;6.412;2022-08-21T10:35:06;23.70;96.70
51486;DHT22;37565;51.352;6.412;2022-08-21T10:37:46;23.70;96.60
51486;DHT22;37565;51.352;6.412;2022-08-21T10:40:22;23.70;96.40
51486;DHT22;37565;51.352;6.412;2022-08-21T10:43:03;23.80;96.10
51486;DHT22;37565;51.352;6.412;2022-08-21T10:45:41;23.80;95.70
51486;DHT22;37565;51.352;6.412;2022-08-21T10:48:17;23.80;95.50
51486;DHT22;37565;51.352;6.412;2022-08-21T10:50:50;23.80;96.20
51486;DHT22;37565;51.352;6.412;2022-08-21T10:53:32;23.80;96.00
51486;DHT22;37565;51.352;6.412;2022-08-21T10:56:12;23.80;96.00
51486;DHT22;37565;51.352;6.412;2022-08-21T10:58:45;23.90;95.00
51486;DHT22;37565;51.352;6.412;2022-08-21T11:01:20;23.90;95.10
51486;DHT22;37565;51.352;6.412;2022-08-21T11:03:58;24.00;94.90
51486;DHT22;37565;51.352;6.412;2022-08-21T11:06:32;24.00;95.10
51486;DHT22;37565;51.352;6.412;2022-08-21T11:09:08;24.00;95.60
51486;DHT22;37565;51.352;6.412;2022-08-21T11:11:41;23.90;94.60
51486;DHT22;37565;51.352;6.412;2022-08-21T11:14:34;24.00;94.90
51486;DHT22;37565;51.352;6.412;2022-08-21T11:17:18;23.90;95.10
51486;DHT22;37565;51.352;6.412;2022-08-21T11:19:53;23.90;95.30
51486;DHT22;37565;51.352;6.412;2022-08-21T11:22:26;23.90;95.40
51486;DHT22;37565;51.352;6.412;2022-08-21T11:25:00;23.90;95.50
51486;DHT22;37565;51.352;6.412;2022-08-21T11:27:36;23.90;95.60
51486;DHT22;37565;51.352;6.412;2022-08-21T11:30:07;23.90;95.70
51486;DHT22;37565;51.352;6.412;2022-08-21T11:32:57;24.00;95.70
51486;DHT22;37565;51.352;6.412;2022-08-21T11:35:34;24.00;95.70
51486;DHT22;37565;51.352;6.412;2022-08-21T11:38:24;24.00;95.60
51486;DHT22;37565;51.352;6.412;2022-08-21T11:41:09;23.90;95.50
51486;DHT22;37565;51.352;6.412;2022-08-21T11:43:41;23.90;95.40
51486;DHT22;37565;51.352;6.412;2022-08-21T11:46:17;24.00;95.60
51486;DHT22;37565;51.352;6.412;2022-08-21T11:48:55;24.00;95.80
51486;DHT22;37565;51.352;6.412;2022-08-21T11:51:38;24.00;96.00
51486;DHT22;37565;51.352;6.412;2022-08-21T11:54:12;24.00;96.00
51486;DHT22;37565;51.352;6.412;2022-08-21T11:56:48;24.00;96.30
51486;DHT22;37565;51.352;6.412;2022-08-21T11:59:22;24.10;96.40
51486;DHT22;37565;51.352;6.412;2022-08-21T12:01:52;24.10;96.50
51486;DHT22;37565;51.352;6.412;2022-08-21T12:04:26;24.10;96.50
51486;DHT22;37565;51.352;6.412;2022-08-21T12:07:08;24.10;96.50
51486;DHT22;37565;51.352;6.412;2022-08-21T12:09:38;24.10;96.60
51486;DHT22;37565;51.352;6.412;2022-08-21T12:12:11;24.10;96.60
51486;DHT22;37565;51.352;6.412;2022-08-21T12:14:42;24.10;96.60
51486;DHT22;37565;51.352;6.412;2022-08-21T12:17:18;24.10;96.60
51486;DHT22;37565;51.352;6.412;2022-08-21T12:19:57;24.10;96.70
51486;DHT22;37565;51.352;6.412;2022-08-21T12:22:38;24.10;96.70
51486;DHT22;37565;51.352;6.412;2022-08-21T12:25:10;24.10;96.80
51486;DHT22;37565;51.352;6.412;2022-08-21T12:27:46;24.10;96.90
51486;DHT22;37565;51.352;6.412;2022-08-21T12:30:32;24.10;97.00
51486;DHT22;37565;51.352;6.412;2022-08-21T12:33:02;24.10;97.00
51486;DHT22;37565;51.352;6.412;2022-08-21T12:35:33;24.10;97.00
51486;DHT22;37565;51.352;6.412;2022-08-21T12:38:08;24.10;97.10
51486;DHT22;37565;51.352;6.412;2022-08-21T12:40:42;24.10;97.10
51486;DHT22;37565;51.352;6.412;2022-08-21T12:43:14;24.10;97.20
51486;DHT22;37565;51.352;6.412;2022-08-21T12:45:44;24.10;97.20
51486;DHT22;37565;51.352;6.412;2022-08-21T12:48:18;24.10;97.30
51486;DHT22;37565;51.352;6.412;2022-08-21T12:50:52;24.10;97.40
51486;DHT22;37565;51.352;6.412;2022-08-21T12:53:28;24.20;97.40
51486;DHT22;37565;51.352;6.412;2022-08-21T12:55:57;24.20;97.50
51486;DHT22;37565;51.352;6.412;2022-08-21T12:58:28;24.10;97.50
51486;DHT22;37565;51.352;6.412;2022-08-21T13:01:01;24.20;97.60
51486;DHT22;37565;51.352;6.412;2022-08-21T13:03:30;24.20;97.80
51486;DHT22;37565;51.352;6.412;2022-08-21T13:05:58;24.20;97.80
51486;DHT22;37565;51.352;6.412;2022-08-21T13:08:28;24.20;98.00
51486;DHT22;37565;51.352;6.412;2022-08-21T13:10:59;24.20;97.90
51486;DHT22;37565;51.352;6.412;2022-08-21T13:13:40;24.20;98.00
51486;DHT22;37565;51.352;6.412;2022-08-21T13:16:22;24.20;98.10
51486;DHT22;37565;51.352;6.412;2022-08-21T13:18:57;24.20;98.20
51486;DHT22;37565;51.352;6.412;2022-08-21T13:21:31;24.20;98.20
51486;DHT22;37565;51.352;6.412;2022-08-21T13:24:15;24.20;98.10
51486;DHT22;37565;51.352;6.412;2022-08-21T13:27:19;24.20;98.10
51486;DHT22;37565;51.352;6.412;2022-08-21T13:29:47;24.20;98.20
51486;DHT22;37565;51.352;6.412;2022-08-21T13:32:22;24.20;98.20
51486;DHT22;37565;51.352;6.412;2022-08-21T13:34:54;24.30;98.30
51486;DHT22;37565;51.352;6.412;2022-08-21T13:37:23;24.20;98.30
51486;DHT22;37565;51.352;6.412;2022-08-21T13:39:54;24.20;98.30
51486;DHT22;37565;51.352;6.412;2022-08-21T13:42:22;24.20;98.40
51486;DHT22;37565;51.352;6.412;2022-08-21T13:44:52;24.20;98.50
51486;DHT22;37565;51.352;6.412;2022-08-21T13:47:21;24.20;98.30
51486;DHT22;37565;51.352;6.412;2022-08-21T13:49:51;24.30;98.30
51486;DHT22;37565;51.352;6.412;2022-08-21T13:52:26;24.30;98.40
51486;DHT22;37565;51.352;6.412;2022-08-21T13:54:58;24.30;98.40
51486;DHT22;37565;51.352;6.412;2022-08-21T13:57:31;24.30;98.40
51486;DHT22;37565;51.352;6.412;2022-08-21T14:00:17;24.30;98.50
51486;DHT22;37565;51.352;6.412;2022-08-21T14:02:48;24.30;98.50
51486;DHT22;37565;51.352;6.412;2022-08-21T14:05:21;24.30;98.40
51486;DHT22;37565;51.352;6.412;2022-08-21T14:07:52;24.30;98.40
51486;DHT22;37565;51.352;6.412;2022-08-21T14:10:25;24.30;98.30
51486;DHT22;37565;51.352;6.412;2022-08-21T14:12:56;24.30;98.30
51486;DHT22;37565;51.352;6.412;2022-08-21T14:15:28;24.40;98.40
51486;DHT22;37565;51.352;6.412;2022-08-21T14:18:07;24.40;98.60
51486;DHT22;37565;51.352;6.412;2022-08-21T14:20:36;24.40;98.30
51486;DHT22;37565;51.352;6.412;2022-08-21T14:23:04;24.40;98.80
51486;DHT22;37565;51.352;6.412;2022-08-21T14:25:40;24.40;98.60
51486;DHT22;37565;51.352;6.412;2022-08-21T14:28:19;24.40;98.50
51486;DHT22;37565;51.352;6.412;2022-08-21T14:30:54;24.40;98.70
51486;DHT22;37565;51.352;6.412;2022-08-21T14:33:26;24.40;98.80
51486;DHT22;37565;51.352;6.412;2022-08-21T14:35:55;24.40;98.80
51486;DHT22;37565;51.352;6.412;2022-08-21T14:38:25;24.40;98.90
51486;DHT22;37565;51.352;6.412;2022-08-21T14:40:57;24.50;98.80
51486;DHT22;37565;51.352;6.412;2022-08-21T14:43:27;24.40;98.90
51486;DHT22;37565;51.352;6.412;2022-08-21T14:45:55;24.40;98.90
51486;DHT22;37565;51.352;6.412;2022-08-21T14:48:24;24.40;99.10
51486;DHT22;37565;51.352;6.412;2022-08-21T14:50:52;24.50;99.20
51486;DHT22;37565;51.352;6.412;2022-08-21T14:53:26;24.50;99.40
51486;DHT22;37565;51.352;6.412;2022-08-21T14:55:55;24.50;99.50
51486;DHT22;37565;51.352;6.412;2022-08-21T14:58:37;24.50;99.60
51486;DHT22;37565;51.352;6.412;2022-08-21T15:01:06;24.50;99.50
51486;DHT22;37565;51.352;6.412;2022-08-21T15:03:36;24.50;99.80
51486;DHT22;37565;51.352;6.412;2022-08-21T15:06:06;24.50;99.90
51486;DHT22;37565;51.352;6.412;2022-08-21T15:08:35;24.50;99.90
51486;DHT22;37565;51.352;6.412;2022-08-21T15:11:06;24.50;99.90
51486;DHT22;37565;51.352;6.412;2022-08-21T15:13:39;24.50;99.90
51486;DHT22;37565;51.352;6.412;2022-08-21T15:16:08;24.50;99.90
51486;DHT22;37565;51.352;6.412;2022-08-21T15:18:38;24.50;99.90
51486;DHT22;37565;51.352;6.412;2022-08-21T15:21:07;24.50;99.90
51486;DHT22;37565;51.352;6.412;2022-08-21T15:23:35;24.50;99.90
51486;DHT22;37565;51.352;6.412;2022-08-21T15:26:11;24.50;99.70
51486;DHT22;37565;51.352;6.412;2022-08-21T15:28:39;24.50;99.20
51486;DHT22;37565;51.352;6.412;2022-08-21T15:31:07;24.50;99.40
51486;DHT22;37565;51.352;6.412;2022-08-21T15:33:35;24.50;99.20
51486;DHT22;37565;51.352;6.412;2022-08-21T15:36:04;24.50;99.80
51486;DHT22;37565;51.352;6.412;2022-08-21T15:38:32;24.50;99.10
51486;DHT22;37565;51.352;6.412;2022-08-21T15:41:02;24.50;99.60
51486;DHT22;37565;51.352;6.412;2022-08-21T15:43:40;24.50;99.50
51486;DHT22;37565;51.352;6.412;2022-08-21T15:46:10;24.50;99.60
51486;DHT22;37565;51.352;6.412;2022-08-21T15:48:40;24.50;99.50
51486;DHT22;37565;51.352;6.412;2022-08-21T15:51:09;24.50;99.40
51486;DHT22;37565;51.352;6.412;2022-08-21T15:53:38;24.50;99.50
51486;DHT22;37565;51.352;6.412;2022-08-21T15:56:11;24.50;99.20
51486;DHT22;37565;51.352;6.412;2022-08-21T15:58:43;24.50;99.30